Terminal Aerodrome Forecast
Issued by NWS

Home | Current Version | Previous Version | Text Only | Print | Product List | Glossary On
Versions: 1 2 3 4 5 6 7 8 9 10 11 12 13 14 15 16 17 18 19 20
042
FTUS41 KAKQ 100502 AAA
TAFPHF
TAF AMD
KPHF 100502Z 1005/1024 27010G16KT P6SM BKN080
     FM101400 27012G18KT P6SM SCT050 BKN150=

USA.gov is the U.S. government's official web portal to all federal, state and local government web resources and services.